sensor_id;sensor_type;location;lat;lon;timestamp;pressure;altitude;pressure_sealevel;temperature;humidity
37238;BME280;23129;49.662;8.448;2024-01-15T00:00:15;99793.16;;;-1.78;100.00
37238;BME280;23129;49.662;8.448;2024-01-15T00:02:44;99794.84;;;-1.80;100.00
37238;BME280;23129;49.662;8.448;2024-01-15T00:05:13;99788.03;;;-1.79;100.00
37238;BME280;23129;49.662;8.448;2024-01-15T00:07:43;99782.88;;;-1.79;100.00
37238;BME280;23129;49.662;8.448;2024-01-15T00:10:12;99775.16;;;-1.79;100.00
37238;BME280;23129;49.662;8.448;2024-01-15T00:12:41;99775.16;;;-1.79;100.00
37238;BME280;23129;49.662;8.448;2024-01-15T00:15:12;99767.47;;;-1.79;100.00
37238;BME280;23129;49.662;8.448;2024-01-15T00:17:42;99774.28;;;-1.80;100.00
37238;BME280;23129;49.662;8.448;2024-01-15T00:20:12;99770.03;;;-1.79;100.00
37238;BME280;23129;49.662;8.448;2024-01-15T00:22:41;99774.31;;;-1.78;100.00
37238;BME280;23129;49.662;8.448;2024-01-15T00:25:11;99774.31;;;-1.78;100.00
37238;BME280;23129;49.662;8.448;2024-01-15T00:27:40;99773.47;;;-1.77;100.00
37238;BME280;23129;49.662;8.448;2024-01-15T00:30:11;99763.22;;;-1.76;100.00
37238;BME280;23129;49.662;8.448;2024-01-15T00:32:41;99764.91;;;-1.76;100.00
37238;BME280;23129;49.662;8.448;2024-01-15T00:35:10;99764.88;;;-1.79;100.00
37238;BME280;23129;49.662;8.448;2024-01-15T00:37:39;99759.75;;;-1.79;100.00
37238;BME280;23129;49.662;8.448;2024-01-15T00:40:08;99756.28;;;-1.81;100.00
37238;BME280;23129;49.662;8.448;2024-01-15T00:42:38;99731.41;;;-1.83;100.00
37238;BME280;23129;49.662;8.448;2024-01-15T00:45:07;99739.09;;;-1.86;100.00
37238;BME280;23129;49.662;8.448;2024-01-15T00:47:36;99750.25;;;-1.85;100.00
37238;BME280;23129;49.662;8.448;2024-01-15T00:50:06;99733.13;;;-1.83;100.00
37238;BME280;23129;49.662;8.448;2024-01-15T00:52:35;99740.88;;;-1.81;100.00
37238;BME280;23129;49.662;8.448;2024-01-15T00:55:05;99734.88;;;-1.80;100.00
37238;BME280;23129;49.662;8.448;2024-01-15T00:57:34;99728.91;;;-1.78;100.00
37238;BME280;23129;49.662;8.448;2024-01-15T01:00:06;99738.34;;;-1.78;100.00
37238;BME280;23129;49.662;8.448;2024-01-15T01:02:36;99752.03;;;-1.78;100.00
37238;BME280;23129;49.662;8.448;2024-01-15T01:05:05;99739.22;;;-1.76;100.00
37238;BME280;23129;49.662;8.448;2024-01-15T01:07:34;99742.63;;;-1.77;100.00
37238;BME280;23129;49.662;8.448;2024-01-15T01:10:04;99732.34;;;-1.77;100.00
37238;BME280;23129;49.662;8.448;2024-01-15T01:12:33;99728.94;;;-1.76;100.00
37238;BME280;23129;49.662;8.448;2024-01-15T01:15:05;99725.50;;;-1.75;100.00
37238;BME280;23129;49.662;8.448;2024-01-15T01:17:34;99730.66;;;-1.75;100.00
37238;BME280;23129;49.662;8.448;2024-01-15T01:20:07;99722.06;;;-1.77;100.00
37238;BME280;23129;49.662;8.448;2024-01-15T01:22:38;99736.66;;;-1.76;100.00
37238;BME280;23129;49.662;8.448;2024-01-15T01:25:07;99736.66;;;-1.76;100.00
37238;BME280;23129;49.662;8.448;2024-01-15T01:27:36;99727.19;;;-1.77;100.00
37238;BME280;23129;49.662;8.448;2024-01-15T01:30:08;99715.19;;;-1.77;100.00
37238;BME280;23129;49.662;8.448;2024-01-15T01:32:37;99722.94;;;-1.75;100.00
37238;BME280;23129;49.662;8.448;2024-01-15T01:35:06;99727.22;;;-1.74;100.00
37238;BME280;23129;49.662;8.448;2024-01-15T01:37:35;99722.94;;;-1.74;100.00
37238;BME280;23129;49.662;8.448;2024-01-15T01:40:05;99712.66;;;-1.74;100.00
37238;BME280;23129;49.662;8.448;2024-01-15T01:42:34;99712.66;;;-1.74;100.00
37238;BME280;23129;49.662;8.448;2024-01-15T01:45:08;99706.66;;;-1.74;100.00
37238;BME280;23129;49.662;8.448;2024-01-15T01:47:37;99710.97;;;-1.72;100.00
37238;BME280;23129;49.662;8.448;2024-01-15T01:50:07;99723.00;;;-1.69;100.00
37238;BME280;23129;49.662;8.448;2024-01-15T01:52:36;99725.56;;;-1.68;100.00
37238;BME280;23129;49.662;8.448;2024-01-15T01:55:06;99740.16;;;-1.65;100.00
37238;BME280;23129;49.662;8.448;2024-01-15T01:57:35;99723.91;;;-1.64;100.00
37238;BME280;23129;49.662;8.448;2024-01-15T02:00:06;99726.50;;;-1.63;100.00
37238;BME280;23129;49.662;8.448;2024-01-15T02:02:42;99716.22;;;-1.59;100.00
37238;BME280;23129;49.662;8.448;2024-01-15T02:05:13;99715.41;;;-1.57;100.00
37238;BME280;23129;49.662;8.448;2024-01-15T02:07:44;99713.69;;;-1.56;100.00
37238;BME280;23129;49.662;8.448;2024-01-15T02:10:14;99729.16;;;-1.55;100.00
37238;BME280;23129;49.662;8.448;2024-01-15T02:12:43;99731.69;;;-1.56;100.00
37238;BME280;23129;49.662;8.448;2024-01-15T02:15:13;99727.44;;;-1.54;100.00
37238;BME280;23129;49.662;8.448;2024-01-15T02:18:00;99724.00;;;-1.55;100.00
37238;BME280;23129;49.662;8.448;2024-01-15T02:20:31;99727.47;;;-1.51;100.00
37238;BME280;23129;49.662;8.448;2024-01-15T02:23:12;99721.47;;;-1.52;100.00
37238;BME280;23129;49.662;8.448;2024-01-15T02:25:43;99734.34;;;-1.49;100.00
37238;BME280;23129;49.662;8.448;2024-01-15T02:28:15;99737.75;;;-1.47;100.00
37238;BME280;23129;49.662;8.448;2024-01-15T02:30:45;99720.66;;;-1.45;100.00
37238;BME280;23129;49.662;8.448;2024-01-15T02:33:14;99722.38;;;-1.44;100.00
37238;BME280;23129;49.662;8.448;2024-01-15T02:35:43;99712.06;;;-1.44;100.00
37238;BME280;23129;49.662;8.448;2024-01-15T02:38:16;99724.09;;;-1.44;100.00
37238;BME280;23129;49.662;8.448;2024-01-15T02:40:45;99729.22;;;-1.46;100.00
37238;BME280;23129;49.662;8.448;2024-01-15T02:43:14;99710.34;;;-1.48;100.00
37238;BME280;23129;49.662;8.448;2024-01-15T02:45:43;99712.91;;;-1.49;100.00
37238;BME280;23129;49.662;8.448;2024-01-15T02:48:12;99700.06;;;-1.49;100.00
37238;BME280;23129;49.662;8.448;2024-01-15T02:50:42;99702.63;;;-1.49;100.00
37238;BME280;23129;49.662;8.448;2024-01-15T02:53:11;99712.03;;;-1.50;100.00
37238;BME280;23129;49.662;8.448;2024-01-15T02:55:42;99707.78;;;-1.49;100.00
37238;BME280;23129;49.662;8.448;2024-01-15T02:58:11;99698.34;;;-1.49;100.00
37238;BME280;23129;49.662;8.448;2024-01-15T03:00:40;99706.91;;;-1.47;100.00
37238;BME280;23129;49.662;8.448;2024-01-15T03:03:10;99706.09;;;-1.46;100.00
37238;BME280;23129;49.662;8.448;2024-01-15T03:05:41;99704.38;;;-1.44;100.00
37238;BME280;23129;49.662;8.448;2024-01-15T03:08:11;99712.06;;;-1.44;100.00
37238;BME280;23129;49.662;8.448;2024-01-15T03:10:42;99694.06;;;-1.44;100.00
37238;BME280;23129;49.662;8.448;2024-01-15T03:13:11;99691.50;;;-1.44;100.00
37238;BME280;23129;49.662;8.448;2024-01-15T03:15:45;99699.22;;;-1.44;100.00
37238;BME280;23129;49.662;8.448;2024-01-15T03:18:14;99704.38;;;-1.44;100.00
37238;BME280;23129;49.662;8.448;2024-01-15T03:20:43;99705.25;;;-1.43;100.00
37238;BME280;23129;49.662;8.448;2024-01-15T03:23:12;99705.25;;;-1.43;100.00
37238;BME280;23129;49.662;8.448;2024-01-15T03:25:45;99709.53;;;-1.42;100.00
37238;BME280;23129;49.662;8.448;2024-01-15T03:28:14;99696.72;;;-1.41;100.00
37238;BME280;23129;49.662;8.448;2024-01-15T03:30:43;99708.72;;;-1.40;100.00
37238;BME280;23129;49.662;8.448;2024-01-15T03:33:12;99703.56;;;-1.40;100.00
37238;BME280;23129;49.662;8.448;2024-01-15T03:35:41;99695.84;;;-1.38;100.00
37238;BME280;23129;49.662;8.448;2024-01-15T03:38:10;99690.69;;;-1.38;100.00
37238;BME280;23129;49.662;8.448;2024-01-15T03:40:39;99695.84;;;-1.38;100.00
37238;BME280;23129;49.662;8.448;2024-01-15T03:43:10;99708.72;;;-1.36;100.00
37238;BME280;23129;49.662;8.448;2024-01-15T03:45:39;99701.88;;;-1.38;100.00
37238;BME280;23129;49.662;8.448;2024-01-15T03:48:08;99695.88;;;-1.36;100.00
37238;BME280;23129;49.662;8.448;2024-01-15T03:50:37;99688.16;;;-1.36;100.00
37238;BME280;23129;49.662;8.448;2024-01-15T03:53:06;99689.84;;;-1.39;100.00
37238;BME280;23129;49.662;8.448;2024-01-15T03:55:35;99683.00;;;-1.36;100.00
37238;BME280;23129;49.662;8.448;2024-01-15T03:58:04;99673.59;;;-1.36;100.00
37238;BME280;23129;49.662;8.448;2024-01-15T04:00:35;99659.88;;;-1.35;100.00
37238;BME280;23129;49.662;8.448;2024-01-15T04:03:04;99656.47;;;-1.34;100.00
37238;BME280;23129;49.662;8.448;2024-01-15T04:05:36;99647.91;;;-1.31;100.00
37238;BME280;23129;49.662;8.448;2024-01-15T04:08:05;99647.06;;;-1.30;100.00
37238;BME280;23129;49.662;8.448;2024-01-15T04:10:35;99656.50;;;-1.28;100.00
37238;BME280;23129;49.662;8.448;2024-01-15T04:13:04;99647.06;;;-1.26;100.00
37238;BME280;23129;49.662;8.448;2024-01-15T04:15:34;99649.66;;;-1.24;100.00
37238;BME280;23129;49.662;8.448;2024-01-15T04:18:04;99645.41;;;-1.22;100.00
37238;BME280;23129;49.662;8.448;2024-01-15T04:20:33;99649.69;;;-1.21;100.00
37238;BME280;23129;49.662;8.448;2024-01-15T04:23:02;99633.38;;;-1.20;100.00
37238;BME280;23129;49.662;8.448;2024-01-15T04:25:31;99635.13;;;-1.19;100.00
37238;BME280;23129;49.662;8.448;2024-01-15T04:27:59;99633.41;;;-1.19;100.00
37238;BME280;23129;49.662;8.448;2024-01-15T04:30:28;99626.56;;;-1.18;100.00
37238;BME280;23129;49.662;8.448;2024-01-15T04:32:59;99619.69;;;-1.19;100.00
37238;BME280;23129;49.662;8.448;2024-01-15T04:35:32;99631.69;;;-1.18;100.00
37238;BME280;23129;49.662;8.448;2024-01-15T04:38:04;99623.97;;;-1.20;100.00
37238;BME280;23129;49.662;8.448;2024-01-15T04:40:35;99602.53;;;-1.19;100.00
37238;BME280;23129;49.662;8.448;2024-01-15T04:43:04;99624.84;;;-1.19;100.00
37238;BME280;23129;49.662;8.448;2024-01-15T04:45:33;99614.56;;;-1.19;100.00
37238;BME280;23129;49.662;8.448;2024-01-15T04:48:04;99616.25;;;-1.20;100.00
37238;BME280;23129;49.662;8.448;2024-01-15T04:50:33;99629.97;;;-1.19;100.00
37238;BME280;23129;49.662;8.448;2024-01-15T04:53:04;99626.56;;;-1.18;100.00
37238;BME280;23129;49.662;8.448;2024-01-15T04:55:36;99631.69;;;-1.18;100.00
37238;BME280;23129;49.662;8.448;2024-01-15T04:58:05;99631.72;;;-1.17;100.00
37238;BME280;23129;49.662;8.448;2024-01-15T05:00:34;99636.00;;;-1.16;100.00
37238;BME280;23129;49.662;8.448;2024-01-15T05:03:04;99621.41;;;-1.15;100.00
37238;BME280;23129;49.662;8.448;2024-01-15T05:05:34;99607.69;;;-1.14;100.00
37238;BME280;23129;49.662;8.448;2024-01-15T05:08:03;99612.00;;;-1.13;100.00
37238;BME280;23129;49.662;8.448;2024-01-15T05:10:32;99618.00;;;-1.12;100.00
37238;BME280;23129;49.662;8.448;2024-01-15T05:13:01;99635.19;;;-1.10;100.00
37238;BME280;23129;49.662;8.448;2024-01-15T05:15:30;99624.03;;;-1.09;100.00
37238;BME280;23129;49.662;8.448;2024-01-15T05:17:59;99636.06;;;-1.06;100.00
37238;BME280;23129;49.662;8.448;2024-01-15T05:20:30;99627.47;;;-1.07;100.00
37238;BME280;23129;49.662;8.448;2024-01-15T05:22:59;99616.31;;;-1.06;100.00
37238;BME280;23129;49.662;8.448;2024-01-15T05:25:28;99612.03;;;-1.05;100.00
37238;BME280;23129;49.662;8.448;2024-01-15T05:27:57;99607.75;;;-1.05;100.00
37238;BME280;23129;49.662;8.448;2024-01-15T05:30:26;99611.19;;;-1.06;100.00
37238;BME280;23129;49.662;8.448;2024-01-15T05:32:55;99610.31;;;-1.05;100.00
37238;BME280;23129;49.662;8.448;2024-01-15T05:35:25;99615.50;;;-1.03;100.00
37238;BME280;23129;49.662;8.448;2024-01-15T05:37:54;99613.78;;;-1.03;100.00
37238;BME280;23129;49.662;8.448;2024-01-15T05:40:26;99613.78;;;-1.01;100.00
37238;BME280;23129;49.662;8.448;2024-01-15T05:42:55;99610.38;;;-0.99;100.00
37238;BME280;23129;49.662;8.448;2024-01-15T05:45:25;99604.38;;;-0.98;100.00
37238;BME280;23129;49.662;8.448;2024-01-15T05:47:54;99595.78;;;-0.97;100.00
37238;BME280;23129;49.662;8.448;2024-01-15T05:50:26;99595.81;;;-0.95;100.00
37238;BME280;23129;49.662;8.448;2024-01-15T05:52:56;99600.94;;;-0.94;100.00
37238;BME280;23129;49.662;8.448;2024-01-15T05:55:25;99595.81;;;-0.94;100.00
37238;BME280;23129;49.662;8.448;2024-01-15T05:57:54;99601.81;;;-0.92;100.00
37238;BME280;23129;49.662;8.448;2024-01-15T06:00:22;99596.66;;;-0.90;100.00
37238;BME280;23129;49.662;8.448;2024-01-15T06:02:51;99598.41;;;-0.89;100.00
37238;BME280;23129;49.662;8.448;2024-01-15T06:05:20;99613.00;;;-0.86;100.00
37238;BME280;23129;49.662;8.448;2024-01-15T06:07:49;99616.44;;;-0.84;100.00
37238;BME280;23129;49.662;8.448;2024-01-15T06:10:19;99614.75;;;-0.82;100.00
37238;BME280;23129;49.662;8.448;2024-01-15T06:12:47;99601.84;;;-0.81;100.00
37238;BME280;23129;49.662;8.448;2024-01-15T06:15:16;99598.44;;;-0.78;100.00
37238;BME280;23129;49.662;8.448;2024-01-15T06:17:45;99594.16;;;-0.76;100.00
37238;BME280;23129;49.662;8.448;2024-01-15T06:20:14;99596.75;;;-0.75;100.00
37238;BME280;23129;49.662;8.448;2024-01-15T06:22:44;99592.47;;;-0.74;100.00
37238;BME280;23129;49.662;8.448;2024-01-15T06:25:13;99585.59;;;-0.72;100.00
37238;BME280;23129;49.662;8.448;2024-01-15T06:27:43;99590.75;;;-0.71;100.00
37238;BME280;23129;49.662;8.448;2024-01-15T06:30:13;99594.19;;;-0.70;100.00
37238;BME280;23129;49.662;8.448;2024-01-15T06:32:42;99583.03;;;-0.69;100.00
37238;BME280;23129;49.662;8.448;2024-01-15T06:35:11;99582.19;;;-0.68;100.00
37238;BME280;23129;49.662;8.448;2024-01-15T06:37:40;99583.91;;;-0.67;100.00
37238;BME280;23129;49.662;8.448;2024-01-15T06:40:09;99577.88;;;-0.66;100.00
37238;BME280;23129;49.662;8.448;2024-01-15T06:42:38;99584.78;;;-0.65;100.00
37238;BME280;23129;49.662;8.448;2024-01-15T06:45:09;99587.34;;;-0.65;100.00
37238;BME280;23129;49.662;8.448;2024-01-15T06:47:38;99582.22;;;-0.65;100.00
37238;BME280;23129;49.662;8.448;2024-01-15T06:50:07;99600.22;;;-0.63;100.00
37238;BME280;23129;49.662;8.448;2024-01-15T06:52:36;99583.91;;;-0.64;100.00
37238;BME280;23129;49.662;8.448;2024-01-15T06:55:05;99582.22;;;-0.62;100.00
37238;BME280;23129;49.662;8.448;2024-01-15T06:57:34;99578.75;;;-0.64;100.00
37238;BME280;23129;49.662;8.448;2024-01-15T07:00:04;99579.63;;;-0.65;100.00
37238;BME280;23129;49.662;8.448;2024-01-15T07:02:37;99573.63;;;-0.65;100.00
37238;BME280;23129;49.662;8.448;2024-01-15T07:05:06;99574.47;;;-0.66;100.00
37238;BME280;23129;49.662;8.448;2024-01-15T07:07:35;99580.47;;;-0.66;100.00
37238;BME280;23129;49.662;8.448;2024-01-15T07:10:04;99579.63;;;-0.65;100.00
37238;BME280;23129;49.662;8.448;2024-01-15T07:12:34;99581.34;;;-0.64;100.00
37238;BME280;23129;49.662;8.448;2024-01-15T07:15:02;99577.91;;;-0.64;100.00
37238;BME280;23129;49.662;8.448;2024-01-15T07:17:35;99571.91;;;-0.65;100.00
37238;BME280;23129;49.662;8.448;2024-01-15T07:20:07;99583.91;;;-0.64;100.00
37238;BME280;23129;49.662;8.448;2024-01-15T07:22:37;99587.34;;;-0.65;100.00
37238;BME280;23129;49.662;8.448;2024-01-15T07:25:06;99582.22;;;-0.65;100.00
37238;BME280;23129;49.662;8.448;2024-01-15T07:27:35;99588.22;;;-0.64;100.00
37238;BME280;23129;49.662;8.448;2024-01-15T07:30:04;99583.91;;;-0.64;100.00
37238;BME280;23129;49.662;8.448;2024-01-15T07:32:35;99594.22;;;-0.61;100.00
37238;BME280;23129;49.662;8.448;2024-01-15T07:35:05;99583.94;;;-0.59;100.00
37238;BME280;23129;49.662;8.448;2024-01-15T07:37:34;99589.94;;;-0.57;100.00
37238;BME280;23129;49.662;8.448;2024-01-15T07:40:03;99589.94;;;-0.54;100.00
37238;BME280;23129;49.662;8.448;2024-01-15T07:42:34;99579.66;;;-0.51;100.00
37238;BME280;23129;49.662;8.448;2024-01-15T07:45:04;99589.09;;;-0.49;100.00
37238;BME280;23129;49.662;8.448;2024-01-15T07:47:33;99586.56;;;-0.47;100.00
37238;BME280;23129;49.662;8.448;2024-01-15T07:50:04;99583.13;;;-0.46;100.00
37238;BME280;23129;49.662;8.448;2024-01-15T07:52:33;99570.25;;;-0.44;100.00
37238;BME280;23129;49.662;8.448;2024-01-15T07:55:03;99585.72;;;-0.41;100.00
37238;BME280;23129;49.662;8.448;2024-01-15T07:57:32;99582.28;;;-0.40;100.00
37238;BME280;23129;49.662;8.448;2024-01-15T08:00:04;99576.28;;;-0.38;100.00
37238;BME280;23129;49.662;8.448;2024-01-15T08:02:36;99572.00;;;-0.36;100.00
37238;BME280;23129;49.662;8.448;2024-01-15T08:05:06;99568.53;;;-0.33;100.00
37238;BME280;23129;49.662;8.448;2024-01-15T08:07:35;99574.56;;;-0.31;100.00
37238;BME280;23129;49.662;8.448;2024-01-15T08:10:04;99565.97;;;-0.30;100.00
37238;BME280;23129;49.662;8.448;2024-01-15T08:12:33;99567.72;;;-0.29;100.00
37238;BME280;23129;49.662;8.448;2024-01-15T08:15:02;99563.41;;;-0.27;100.00
37238;BME280;23129;49.662;8.448;2024-01-15T08:17:32;99571.16;;;-0.26;100.00
37238;BME280;23129;49.662;8.448;2024-01-15T08:20:02;99556.53;;;-0.22;100.00
37238;BME280;23129;49.662;8.448;2024-01-15T08:22:34;99565.97;;;-0.21;100.00
37238;BME280;23129;49.662;8.448;2024-01-15T08:25:03;99531.66;;;-0.20;100.00
37238;BME280;23129;49.662;8.448;2024-01-15T08:27:33;99546.25;;;-0.19;100.00
37238;BME280;23129;49.662;8.448;2024-01-15T08:30:04;99548.84;;;-0.17;100.00
37238;BME280;23129;49.662;8.448;2024-01-15T08:32:33;99549.66;;;-0.15;100.00
37238;BME280;23129;49.662;8.448;2024-01-15T08:35:05;99544.53;;;-0.14;100.00
37238;BME280;23129;49.662;8.448;2024-01-15T08:37:35;99544.53;;;-0.11;100.00
37238;BME280;23129;49.662;8.448;2024-01-15T08:40:04;99534.22;;;-0.11;100.00
37238;BME280;23129;49.662;8.448;2024-01-15T08:42:33;99546.25;;;-0.07;100.00
37238;BME280;23129;49.662;8.448;2024-01-15T08:45:03;99544.53;;;-0.05;100.00
37238;BME280;23129;49.662;8.448;2024-01-15T08:47:32;99537.69;;;-0.03;100.00
37238;BME280;23129;49.662;8.448;2024-01-15T08:50:02;99544.53;;;0.02;100.00
37238;BME280;23129;49.662;8.448;2024-01-15T08:52:31;99558.28;;;0.04;100.00
37238;BME280;23129;49.662;8.448;2024-01-15T08:55:02;99557.44;;;0.08;100.00
37238;BME280;23129;49.662;8.448;2024-01-15T08:57:31;99547.97;;;0.11;100.00
37238;BME280;23129;49.662;8.448;2024-01-15T09:00:02;99564.31;;;0.13;100.00
37238;BME280;23129;49.662;8.448;2024-01-15T09:02:31;99541.09;;;0.15;100.00
37238;BME280;23129;49.662;8.448;2024-01-15T09:05:00;99546.25;;;0.18;100.00
37238;BME280;23129;49.662;8.448;2024-01-15T09:07:32;99536.81;;;0.18;100.00
37238;BME280;23129;49.662;8.448;2024-01-15T09:10:02;99526.50;;;0.21;100.00
37238;BME280;23129;49.662;8.448;2024-01-15T09:12:31;99551.44;;;0.24;100.00
37238;BME280;23129;49.662;8.448;2024-01-15T09:15:00;99539.38;;;0.26;100.00
37238;BME280;23129;49.662;8.448;2024-01-15T09:17:32;99539.38;;;0.28;100.00
37238;BME280;23129;49.662;8.448;2024-01-15T09:20:02;99532.47;;;0.30;100.00
37238;BME280;23129;49.662;8.448;2024-01-15T09:22:32;99530.78;;;0.33;100.00
37238;BME280;23129;49.662;8.448;2024-01-15T09:25:02;99509.28;;;0.34;100.00
37238;BME280;23129;49.662;8.448;2024-01-15T09:27:31;99532.47;;;0.37;100.00
37238;BME280;23129;49.662;8.448;2024-01-15T09:30:00;99540.22;;;0.42;100.00
37238;BME280;23129;49.662;8.448;2024-01-15T09:32:30;99535.91;;;0.45;100.00
37238;BME280;23129;49.662;8.448;2024-01-15T09:35:00;99532.47;;;0.50;100.00
37238;BME280;23129;49.662;8.448;2024-01-15T09:37:29;99530.75;;;0.52;100.00
37238;BME280;23129;49.662;8.448;2024-01-15T09:40:15;99541.91;;;0.54;100.00
37238;BME280;23129;49.662;8.448;2024-01-15T09:42:45;99538.50;;;0.52;100.00
37238;BME280;23129;49.662;8.448;2024-01-15T09:45:15;99535.91;;;0.52;100.00
37238;BME280;23129;49.662;8.448;2024-01-15T09:47:44;99532.44;;;0.53;100.00
37238;BME280;23129;49.662;8.448;2024-01-15T09:50:14;99530.75;;;0.55;100.00
37238;BME280;23129;49.662;8.448;2024-01-15T09:52:44;99532.44;;;0.56;100.00
37238;BME280;23129;49.662;8.448;2024-01-15T09:55:17;99535.03;;;0.59;100.00
37238;BME280;23129;49.662;8.448;2024-01-15T09:57:46;99543.63;;;0.59;100.00
37238;BME280;23129;49.662;8.448;2024-01-15T10:00:18;99541.91;;;0.61;100.00
37238;BME280;23129;49.662;8.448;2024-01-15T10:02:47;99534.16;;;0.61;100.00
37238;BME280;23129;49.662;8.448;2024-01-15T10:05:17;99541.03;;;0.61;100.00
37238;BME280;23129;49.662;8.448;2024-01-15T10:07:46;99542.75;;;0.62;100.00
37238;BME280;23129;49.662;8.448;2024-01-15T10:10:18;99541.88;;;0.60;100.00
37238;BME280;23129;49.662;8.448;2024-01-15T10:12:47;99541.03;;;0.61;100.00
37238;BME280;23129;49.662;8.448;2024-01-15T10:15:16;99534.16;;;0.60;100.00
37238;BME280;23129;49.662;8.448;2024-01-15T10:17:45;99529.84;;;0.59;100.00
37238;BME280;23129;49.662;8.448;2024-01-15T10:20:14;99535.88;;;0.61;100.00
37238;BME280;23129;49.662;8.448;2024-01-15T10:22:44;99530.72;;;0.61;100.00
37238;BME280;23129;49.662;8.448;2024-01-15T10:25:14;99525.56;;;0.61;100.00
37238;BME280;23129;49.662;8.448;2024-01-15T10:27:45;99527.28;;;0.62;100.00
37238;BME280;23129;49.662;8.448;2024-01-15T10:30:27;99498.91;;;0.60;100.00
37238;BME280;23129;49.662;8.448;2024-01-15T10:33:00;99495.47;;;0.61;100.00
37238;BME280;23129;49.662;8.448;2024-01-15T10:35:30;99500.59;;;0.64;100.00
37238;BME280;23129;49.662;8.448;2024-01-15T10:38:00;99489.44;;;0.67;100.00
37238;BME280;23129;49.662;8.448;2024-01-15T10:40:30;99500.59;;;0.69;100.00
37238;BME280;23129;49.662;8.448;2024-01-15T10:43:00;99494.56;;;0.70;100.00
37238;BME280;23129;49.662;8.448;2024-01-15T10:45:30;99496.28;;;0.71;100.00
37238;BME280;23129;49.662;8.448;2024-01-15T10:47:59;99496.28;;;0.74;100.00
37238;BME280;23129;49.662;8.448;2024-01-15T10:50:33;99494.56;;;0.76;100.00
37238;BME280;23129;49.662;8.448;2024-01-15T10:53:03;99476.50;;;0.76;100.00
37238;BME280;23129;49.662;8.448;2024-01-15T10:55:32;99477.31;;;0.80;100.00
37238;BME280;23129;49.662;8.448;2024-01-15T10:58:04;99470.44;;;0.82;100.00
37238;BME280;23129;49.662;8.448;2024-01-15T11:00:34;99473.88;;;0.82;100.00
37238;BME280;23129;49.662;8.448;2024-01-15T11:03:06;99474.75;;;0.84;100.00
37238;BME280;23129;49.662;8.448;2024-01-15T11:05:37;99468.69;;;0.85;100.00
37238;BME280;23129;49.662;8.448;2024-01-15T11:08:07;99470.41;;;0.86;100.00
37238;BME280;23129;49.662;8.448;2024-01-15T11:10:41;99475.56;;;0.86;100.00
37238;BME280;23129;49.662;8.448;2024-01-15T11:13:20;99474.72;;;0.86;100.00
37238;BME280;23129;49.662;8.448;2024-01-15T11:15:58;99476.44;;;0.88;100.00
37238;BME280;23129;49.662;8.448;2024-01-15T11:18:28;99472.97;;;0.89;100.00
37238;BME280;23129;49.662;8.448;2024-01-15T11:21:25;99475.59;;;0.88;100.00
37238;BME280;23129;49.662;8.448;2024-01-15T11:23:56;99476.44;;;0.90;100.00
37238;BME280;23129;49.662;8.448;2024-01-15T11:26:36;99474.69;;;0.92;100.00
37238;BME280;23129;49.662;8.448;2024-01-15T11:29:07;99472.09;;;0.95;100.00
37238;BME280;23129;49.662;8.448;2024-01-15T11:32:06;99478.97;;;0.98;100.00
37238;BME280;23129;49.662;8.448;2024-01-15T11:34:58;99484.13;;;1.01;100.00
37238;BME280;23129;49.662;8.448;2024-01-15T11:37:56;99478.06;;;1.06;100.00
37238;BME280;23129;49.662;8.448;2024-01-15T11:40:36;99490.13;;;1.04;100.00
37238;BME280;23129;49.662;8.448;2024-01-15T11:43:06;99484.94;;;1.07;100.00
37238;BME280;23129;49.662;8.448;2024-01-15T11:45:38;99484.06;;;1.10;100.00
37238;BME280;23129;49.662;8.448;2024-01-15T11:48:12;99476.34;;;1.11;100.00
37238;BME280;23129;49.662;8.448;2024-01-15T11:50:44;99465.13;;;1.17;100.00
37238;BME280;23129;49.662;8.448;2024-01-15T11:53:31;99466.78;;;1.24;100.00
37238;BME280;23129;49.662;8.448;2024-01-15T11:56:03;99463.28;;;1.31;100.00
37238;BME280;23129;49.662;8.448;2024-01-15T11:58:34;99456.34;;;1.40;100.00
37238;BME280;23129;49.662;8.448;2024-01-15T12:01:06;99461.47;;;1.47;100.00
37238;BME280;23129;49.662;8.448;2024-01-15T12:03:35;99459.72;;;1.54;100.00
37238;BME280;23129;49.662;8.448;2024-01-15T12:06:06;99469.97;;;1.63;100.00
37238;BME280;23129;49.662;8.448;2024-01-15T12:08:35;99458.72;;;1.72;100.00
37238;BME280;23129;49.662;8.448;2024-01-15T12:11:07;99457.81;;;1.77;100.00
37238;BME280;23129;49.662;8.448;2024-01-15T12:13:39;99447.41;;;1.83;100.00
37238;BME280;23129;49.662;8.448;2024-01-15T12:16:09;99455.97;;;1.90;100.00
37238;BME280;23129;49.662;8.448;2024-01-15T12:18:38;99456.75;;;1.97;100.00
37238;BME280;23129;49.662;8.448;2024-01-15T12:21:07;99455.84;;;2.04;100.00
37238;BME280;23129;49.662;8.448;2024-01-15T12:23:39;99454.03;;;2.12;100.00
37238;BME280;23129;49.662;8.448;2024-01-15T12:26:07;99447.06;;;2.20;100.00
37238;BME280;23129;49.662;8.448;2024-01-15T12:28:37;99447.78;;;2.35;100.00
37238;BME280;23129;49.662;8.448;2024-01-15T12:31:06;99443.34;;;2.46;100.00
37238;BME280;23129;49.662;8.448;2024-01-15T12:33:37;99445.84;;;2.54;100.00
37238;BME280;23129;49.662;8.448;2024-01-15T12:36:07;99442.22;;;2.70;100.00
37238;BME280;23129;49.662;8.448;2024-01-15T12:38:36;99435.91;;;2.91;100.00
37238;BME280;23129;49.662;8.448;2024-01-15T12:41:05;99435.44;;;3.25;100.00
37238;BME280;23129;49.662;8.448;2024-01-15T12:43:34;99435.00;;;3.54;100.00
37238;BME280;23129;49.662;8.448;2024-01-15T12:46:03;99432.25;;;3.63;100.00
37238;BME280;23129;49.662;8.448;2024-01-15T12:48:33;99429.69;;;3.61;100.00
37238;BME280;23129;49.662;8.448;2024-01-15T12:51:08;99441.09;;;3.50;100.00
37238;BME280;23129;49.662;8.448;2024-01-15T12:53:37;99442.13;;;3.38;100.00
37238;BME280;23129;49.662;8.448;2024-01-15T12:56:06;99438.88;;;3.27;100.00
37238;BME280;23129;49.662;8.448;2024-01-15T12:58:35;99430.38;;;3.15;100.00
37238;BME280;23129;49.662;8.448;2024-01-15T13:01:04;99442.63;;;3.04;100.00
37238;BME280;23129;49.662;8.448;2024-01-15T13:03:33;99441.00;;;2.97;100.00
37238;BME280;23129;49.662;8.448;2024-01-15T13:06:02;99445.41;;;2.89;100.00
37238;BME280;23129;49.662;8.448;2024-01-15T13:08:33;99448.09;;;2.83;100.00